createdAt,value
2022-11-16T00:04:17.808Z,32.30
2022-11-16T00:09:21.751Z,32.20
2022-11-16T00:14:25.517Z,26.70
2022-11-16T00:19:27.825Z,31.60
2022-11-16T00:24:29.330Z,31.20
2022-11-16T00:29:30.687Z,34.60
2022-11-16T00:34:32.179Z,34.10
2022-11-16T00:39:33.738Z,35.00
2022-11-16T00:44:35.141Z,35.40
2022-11-16T00:49:37.693Z,30.50
2022-11-16T00:54:39.318Z,28.00
2022-11-16T00:59:40.642Z,25.60
2022-11-16T01:04:41.995Z,25.90
2022-11-16T01:09:43.319Z,31.50
2022-11-16T01:14:46.592Z,30.20
2022-11-16T01:19:47.801Z,31.70
2022-11-16T01:24:49.305Z,24.20
2022-11-16T01:29:50.547Z,28.10
2022-11-16T01:34:52.850Z,22.80
2022-11-16T01:39:53.998Z,22.50
2022-11-16T01:45:20.408Z,27.90
2022-11-16T01:50:22.195Z,23.80
2022-11-16T01:55:26.852Z,25.00
2022-11-16T02:00:28.088Z,28.70
2022-11-16T02:06:04.269Z,24.20
2022-11-16T02:11:05.415Z,19.90
2022-11-16T02:21:30.700Z,24.20
2022-11-16T02:26:50.460Z,22.60
2022-11-16T02:32:23.207Z,20.00
2022-11-16T02:37:29.009Z,17.90
2022-11-16T02:42:55.506Z,14.30
2022-11-16T02:48:03.116Z,11.80
2022-11-16T02:53:04.359Z,9.30
2022-11-16T02:58:09.068Z,8.80
2022-11-16T03:03:34.640Z,6.20
2022-11-16T03:08:42.142Z,5.30
2022-11-16T03:13:44.681Z,5.40
2022-11-16T03:18:48.562Z,4.50
2022-11-16T03:23:51.021Z,4.20
2022-11-16T03:29:05.931Z,3.30
2022-11-16T03:34:15.596Z,2.50
2022-11-16T03:39:24.250Z,3.40
2022-11-16T03:44:26.792Z,2.40
2022-11-16T03:49:30.756Z,2.30
2022-11-16T03:54:31.890Z,2.60
2022-11-16T04:04:52.870Z,1.60
2022-11-16T04:10:12.550Z,1.80
2022-11-16T04:15:32.436Z,1.40
2022-11-16T04:20:52.101Z,1.30
2022-11-16T04:25:53.684Z,1.40
2022-11-16T04:31:16.762Z,1.40
2022-11-16T04:36:37.208Z,1.20
2022-11-16T04:41:56.767Z,1.60
2022-11-16T04:47:16.397Z,1.40
2022-11-16T04:52:17.468Z,1.30
2022-11-16T05:02:20.301Z,2.00
2022-11-16T05:07:21.817Z,1.50
2022-11-16T05:12:25.712Z,2.10
2022-11-16T05:17:27.517Z,3.00
2022-11-16T05:22:29.072Z,1.80
2022-11-16T05:27:31.397Z,2.80
2022-11-16T05:32:32.460Z,3.80
2022-11-16T05:42:34.571Z,1.70
2022-11-16T05:52:37.070Z,2.50
2022-11-16T06:07:40.821Z,1.50
2022-11-16T06:17:42.938Z,2.30
2022-11-16T06:27:45.037Z,3.40
2022-11-16T06:37:51.911Z,1.80
2022-11-16T06:42:56.423Z,1.70
2022-11-16T06:47:57.495Z,2.90
2022-11-16T06:58:01.205Z,1.70
2022-11-16T07:08:05.245Z,2.70
2022-11-16T07:13:06.718Z,1.70
2022-11-16T07:18:08.447Z,2.20
2022-11-16T07:23:13.981Z,3.00
2022-11-16T07:28:15.626Z,2.40
2022-11-16T07:38:18.338Z,2.90
2022-11-16T07:43:20.166Z,2.10
2022-11-16T07:48:21.341Z,2.70
2022-11-16T07:53:23.644Z,3.30
2022-11-16T07:58:26.363Z,2.00
2022-11-16T08:03:27.477Z,1.50
2022-11-16T08:08:29.294Z,3.20
2022-11-16T08:13:33.567Z,3.40
2022-11-16T08:18:36.662Z,1.70
2022-11-16T08:23:39.632Z,2.10
2022-11-16T08:28:42.947Z,1.60
2022-11-16T08:33:44.049Z,8.40
2022-11-16T08:43:49.712Z,2.30
2022-11-16T08:48:54.388Z,2.20
2022-11-16T08:53:57.259Z,1.70
2022-11-16T08:58:59.438Z,4.10
2022-11-16T09:04:01.139Z,2.20
2022-11-16T09:09:03.186Z,1.80
2022-11-16T09:14:04.339Z,2.10
2022-11-16T09:19:05.505Z,2.20
2022-11-16T09:24:06.916Z,2.20
2022-11-16T09:29:13.703Z,3.00
2022-11-16T09:34:15.173Z,3.60
2022-11-16T09:39:30.690Z,1.90
2022-11-16T09:45:10.502Z,3.50
2022-11-16T09:50:22.761Z,3.00
2022-11-16T09:55:50.670Z,2.10
2022-11-16T10:01:18.919Z,3.10
2022-11-16T10:06:26.630Z,2.50
2022-11-16T10:11:52.473Z,2.20
2022-11-16T10:16:58.290Z,3.90
2022-11-16T10:22:37.147Z,1.70
2022-11-16T10:27:38.270Z,1.60
2022-11-16T10:33:09.808Z,3.30
2022-11-16T10:38:23.657Z,4.60
2022-11-16T10:43:32.612Z,1.80
2022-11-16T10:48:41.677Z,1.80
2022-11-16T10:53:43.657Z,3.20
2022-11-16T10:59:04.757Z,3.30
2022-11-16T11:04:13.730Z,2.30
2022-11-16T11:09:20.741Z,2.80
2022-11-16T11:14:22.034Z,2.70
2022-11-16T11:19:26.737Z,3.40
2022-11-16T11:24:43.922Z,1.80
2022-11-16T11:29:55.618Z,2.30
2022-11-16T11:34:59.538Z,2.20
2022-11-16T11:40:23.831Z,1.90
2022-11-16T11:45:48.995Z,3.30
2022-11-16T11:50:56.967Z,2.80
2022-11-16T11:55:59.100Z,2.40
2022-11-16T12:01:25.248Z,3.70
2022-11-16T12:06:45.707Z,3.60
2022-11-16T12:11:52.913Z,3.80
2022-11-16T12:16:56.998Z,4.30
2022-11-16T12:22:24.038Z,2.80
2022-11-16T12:27:39.278Z,2.70
2022-11-16T12:33:20.805Z,3.60
2022-11-16T12:38:46.858Z,3.50
2022-11-16T12:44:12.042Z,3.20
2022-11-16T12:49:36.330Z,9.40
2022-11-16T12:54:57.725Z,3.90
2022-11-16T13:00:05.060Z,4.10
2022-11-16T13:05:19.454Z,2.80
2022-11-16T13:10:27.204Z,3.00
2022-11-16T13:15:33.878Z,3.70
2022-11-16T13:20:50.617Z,7.30
2022-11-16T13:26:04.097Z,7.00
2022-11-16T13:31:17.739Z,5.30
2022-11-16T13:36:47.672Z,6.90
2022-11-16T13:42:03.851Z,5.20
2022-11-16T13:47:17.366Z,4.10
2022-11-16T13:52:40.193Z,4.20
2022-11-16T13:57:50.629Z,7.50
2022-11-16T14:03:16.596Z,5.10
2022-11-16T14:08:23.612Z,7.50
2022-11-16T14:13:46.547Z,4.80
2022-11-16T14:18:51.541Z,4.80
2022-11-16T14:24:18.000Z,4.10
2022-11-16T14:29:57.031Z,3.60
2022-11-16T14:35:04.337Z,3.10
2022-11-16T14:40:16.119Z,4.60
2022-11-16T14:45:23.986Z,4.20
2022-11-16T14:50:26.473Z,4.50
2022-11-16T14:55:27.833Z,5.90
2022-11-16T15:00:29.605Z,2.90
2022-11-16T15:05:35.959Z,5.10
2022-11-16T15:10:48.159Z,4.00
2022-11-16T15:16:17.724Z,3.40
2022-11-16T15:21:24.544Z,5.30
2022-11-16T15:26:25.780Z,5.30
2022-11-16T15:31:28.240Z,4.20
2022-11-16T15:36:38.759Z,5.90
2022-11-16T15:41:40.808Z,3.90
2022-11-16T15:46:54.103Z,4.60
2022-11-16T15:51:59.926Z,3.90
2022-11-16T15:57:07.608Z,2.70
2022-11-16T16:02:18.274Z,4.90
2022-11-16T16:07:39.304Z,4.00
2022-11-16T16:12:50.245Z,3.10
2022-11-16T16:17:53.273Z,4.30
2022-11-16T16:23:24.901Z,5.10
2022-11-16T16:28:26.456Z,7.50
2022-11-16T16:33:29.109Z,6.40
2022-11-16T16:38:31.924Z,8.20
2022-11-16T16:43:34.039Z,6.90
2022-11-16T16:48:38.030Z,5.80
2022-11-16T16:53:44.069Z,6.70
2022-11-16T16:58:45.507Z,7.30
2022-11-16T17:03:47.414Z,4.50
2022-11-16T17:08:48.629Z,5.80
2022-11-16T17:13:49.769Z,4.40
2022-11-16T17:23:56.788Z,3.80
2022-11-16T17:28:58.108Z,3.20
2022-11-16T17:33:59.844Z,3.90
2022-11-16T17:39:01.287Z,4.50
2022-11-16T17:44:03.544Z,4.10
2022-11-16T17:49:05.248Z,4.30
2022-11-16T17:54:06.690Z,3.90
2022-11-16T17:59:08.064Z,5.00
2022-11-16T18:04:09.617Z,4.70
2022-11-16T18:09:10.872Z,5.80
2022-11-16T18:14:12.106Z,4.90
2022-11-16T18:19:16.419Z,5.00
2022-11-16T18:24:17.813Z,4.90
2022-11-16T18:29:19.007Z,4.70
2022-11-16T18:34:20.262Z,4.90
2022-11-16T18:39:21.367Z,5.50
2022-11-16T18:54:24.832Z,5.20
2022-11-16T18:59:26.465Z,2.90
2022-11-16T19:04:27.959Z,3.70
2022-11-16T19:09:29.176Z,4.40
2022-11-16T19:14:30.637Z,7.00
2022-11-16T19:19:31.774Z,4.90
2022-11-16T19:29:35.972Z,4.20
2022-11-16T19:34:37.487Z,2.40
2022-11-16T19:39:38.939Z,4.10
2022-11-16T19:44:40.260Z,3.50
2022-11-16T19:49:41.500Z,5.00
2022-11-16T19:54:42.972Z,6.70
2022-11-16T19:59:44.329Z,4.80
2022-11-16T20:04:45.538Z,4.60
2022-11-16T20:09:53.126Z,4.40
2022-11-16T20:14:54.681Z,6.40
2022-11-16T20:19:55.871Z,3.70
2022-11-16T20:29:58.095Z,3.70
2022-11-16T20:34:59.519Z,6.40
2022-11-16T20:45:03.007Z,5.20
2022-11-16T20:50:05.163Z,6.00
2022-11-16T20:55:10.113Z,6.70
2022-11-16T21:00:14.874Z,4.80
2022-11-16T21:05:16.074Z,5.90
2022-11-16T21:10:20.254Z,5.90
2022-11-16T21:15:21.469Z,6.30
2022-11-16T21:20:28.172Z,6.20
2022-11-16T21:25:29.876Z,4.10
2022-11-16T21:30:31.467Z,3.40
2022-11-16T21:35:32.902Z,7.40
2022-11-16T21:40:34.073Z,5.50
2022-11-16T21:45:35.511Z,4.40
2022-11-16T21:50:37.395Z,4.00
2022-11-16T21:55:38.523Z,6.20
2022-11-16T22:00:40.221Z,4.20
2022-11-16T22:06:01.164Z,5.20
2022-11-16T22:11:02.626Z,5.90
2022-11-16T22:16:16.820Z,4.50
2022-11-16T22:21:19.543Z,4.00
2022-11-16T22:26:20.760Z,4.10
2022-11-16T22:31:21.895Z,5.10
2022-11-16T22:36:24.116Z,5.60
2022-11-16T22:41:25.745Z,5.20
2022-11-16T22:46:27.036Z,4.10
2022-11-16T22:51:30.030Z,4.10
2022-11-16T22:56:33.566Z,4.70
2022-11-16T23:01:38.357Z,3.90
2022-11-16T23:06:40.485Z,6.20
2022-11-16T23:11:59.800Z,5.60
2022-11-16T23:17:03.305Z,5.90
2022-11-16T23:22:24.806Z,5.50
2022-11-16T23:27:37.543Z,6.20
2022-11-16T23:32:39.865Z,5.00
2022-11-16T23:38:00.460Z,5.70
2022-11-16T23:43:20.757Z,4.20
2022-11-16T23:48:22.187Z,4.30
2022-11-16T23:53:23.283Z,5.70
